Aérodrome :
LOGIN :

S'inscrire | Disclaimer

   EN    FR    IT 

 










Légende :    VFR   VFR Marginal   IFR   IFR Intensif   IFR Très Intensif
Visi : 
Plafond : 
>= 8 km
>= 3000ft
5 à 8 km
1000 à 3000 ft
1500m à 5 km
500 à 1000 ft
800 à 1500m
200 à 500 ft
< 800m
< 200 ft
Symboles :   Orages  Brouillard  Fortes neiges  Fortes précipitations  Vent > 20 kt
SIGMETs :   Divers  Orages  Givrage  Turbulence  Onde Orograph.  Cendres Volcan.







- Altitude de l'aérodrome : 375 ft
- Code IATA : MST


EHBK - Maastricht Aachen

DERNIER METAR :
  • 301025Z AUTO 20010KT 170V230 9999 NSC 19/09 Q1025 NOSIG

METARs EXPIRÉS :
  • 300955Z AUTO 20012KT 9999 NSC 18/09 Q1025 NOSIG
  • 300925Z AUTO 20012KT 170V230 9999 NSC 17/09 Q1025 NOSIG
  • 300855Z AUTO 19012KT 9999 NSC 16/09 Q1025 NOSIG
  • 300825Z AUTO 20011KT 9999 NSC 15/08 Q1025 NOSIG
  • 300755Z AUTO 21010KT 170V230 9999 NSC 14/08 Q1025 NOSIG

TAF TAF EHBK
Valide du 30 à 06h jusqu'au 31 à 12h UTC


300454Z 3006/3112 19008KT CAVOK
Pas de NOTAMs connus pour ce terrain.



MET'MAP, la Météo Aéronautique d'un coup d'oeil ! - Copyright ORBIFLY Décembre 2007 - Disclaimer

ORBIFLY MET'MAP TEAM :

Programmation & Développement : Alexandra Zaïnal
Conception & Développement : Baudouin d'Aumeries
Co-Programmation & Développement : Marc-Olivier Méhu
Soutien technique & logistique : Manuel Goepfert

Contact : metmap@orbifly.com




SOURCES & CREDITS :

   NOAA